Time;durP1;ratioP1;P1;durP2;ratioP2;P2;SDS_P1;SDS_P2;PMS_P1;PMS_P2;Temp;Humidity;BMP_temperature;BMP_pressure;BME280_temperature;BME280_humidity;BME280_pressure;Samples;Min_cycle;Max_cycle;Signal;HPM_P1;HPM_P2
2022/05/12 00:02:02;;;;;;;4.10;2.60;;;;;;;24.41;27.94;97251.22;5011023;28;20451;-70
2022/05/12 00:04:29;;;;;;;8.03;3.00;;;;;;;24.34;27.94;97254.06;5008694;28;20197;-70
2022/05/12 00:06:55;;;;;;;2.93;2.60;;;;;;;24.39;28.05;97263.00;5010729;28;20928;-70
2022/05/12 00:09:20;;;;;;;2.97;2.50;;;;;;;24.45;28.09;97249.66;4993483;28;20470;-70
2022/05/12 00:11:46;;;;;;;2.50;2.30;;;;;;;24.42;28.03;97253.66;4995834;28;20435;-71
2022/05/12 00:14:12;;;;;;;4.20;2.80;;;;;;;24.43;28.40;97257.16;5014913;28;20215;-71
2022/05/12 00:16:38;;;;;;;3.10;2.73;;;;;;;24.37;28.53;97258.94;5015081;28;20184;-71
2022/05/12 00:19:03;;;;;;;3.90;2.60;;;;;;;24.37;28.55;97264.28;4997571;28;20458;-70
2022/05/12 00:21:29;;;;;;;5.23;2.70;;;;;;;24.28;28.45;97263.03;5015102;28;20660;-70
2022/05/12 00:23:58;;;;;;;3.37;2.80;;;;;;;24.33;28.67;97263.13;5015217;28;20215;-70
2022/05/12 00:26:29;;;;;;;4.17;2.83;;;;;;;24.30;28.66;97267.13;5009620;28;20192;-70
2022/05/12 00:28:59;;;;;;;3.13;2.83;;;;;;;24.30;29.15;97269.78;5014983;28;20479;-70
2022/05/12 00:31:26;;;;;;;2.73;2.53;;;;;;;24.33;29.00;97268.50;5011586;28;20489;-71
2022/05/12 00:33:52;;;;;;;3.57;2.87;;;;;;;24.29;29.23;97275.38;5014526;28;20447;-71
2022/05/12 00:36:18;;;;;;;2.93;2.73;;;;;;;24.28;29.34;97271.88;5014315;28;20427;-70
2022/05/12 00:38:43;;;;;;;3.43;2.53;;;;;;;24.31;29.15;97278.63;5014456;28;20486;-69
2022/05/12 00:41:09;;;;;;;4.20;2.80;;;;;;;24.43;29.29;97281.25;5014254;28;20196;-71
2022/05/12 00:43:42;;;;;;;3.50;2.53;;;;;;;24.48;29.21;97275.97;5014355;28;20211;-69
2022/05/12 00:46:14;;;;;;;8.33;2.67;;;;;;;24.53;29.25;97278.75;5014107;28;20192;-69
2022/05/12 00:48:40;;;;;;;3.67;2.90;;;;;;;24.56;29.29;97278.28;5014308;28;20426;-71
2022/05/12 00:51:07;;;;;;;3.87;2.50;;;;;;;24.56;29.23;97278.28;5014222;28;20431;-71
2022/05/12 00:53:34;;;;;;;4.13;2.70;;;;;;;24.54;29.37;97285.75;5014155;28;20454;-71
2022/05/12 00:56:00;;;;;;;3.77;2.57;;;;;;;24.53;29.46;97289.47;5013630;28;21081;-72
2022/05/12 00:58:27;;;;;;;7.63;2.93;;;;;;;24.50;29.33;97281.91;4996459;28;20427;-70
2022/05/12 01:00:52;;;;;;;3.97;3.10;;;;;;;24.46;29.70;97283.44;4996818;28;20619;-72
2022/05/12 01:03:25;;;;;;;5.50;3.00;;;;;;;24.39;29.70;97284.41;4996208;28;20553;-70
2022/05/12 01:05:52;;;;;;;3.10;2.80;;;;;;;24.40;29.96;97287.88;4997295;28;20681;-71
2022/05/12 01:08:19;;;;;;;4.03;2.77;;;;;;;24.31;29.86;97292.84;4996298;28;20462;-71
2022/05/12 01:10:52;;;;;;;4.13;2.97;;;;;;;24.30;30.00;97293.88;4998335;28;20462;-71
2022/05/12 01:13:18;;;;;;;7.90;3.10;;;;;;;24.20;29.99;97297.19;4997554;28;20439;-71
2022/05/12 01:15:58;;;;;;;3.70;3.00;;;;;;;24.18;30.20;97299.28;4996791;28;20482;-71
2022/05/12 01:18:24;;;;;;;5.70;2.87;;;;;;;24.09;30.36;97292.69;5013359;28;20431;-73
2022/05/12 01:20:50;;;;;;;4.60;2.90;;;;;;;24.07;30.49;97297.44;5012488;28;20497;-71
2022/05/12 01:23:36;;;;;;;4.73;2.70;;;;;;;24.02;30.47;97300.84;5012154;28;20478;-71
2022/05/12 01:26:12;;;;;;;3.73;2.67;;;;;;;24.10;30.69;97301.50;4997672;28;20184;-71
2022/05/12 01:28:38;;;;;;;4.73;3.30;;;;;;;24.10;30.54;97296.97;5013600;28;20857;-73
2022/05/12 01:31:05;;;;;;;3.87;2.60;;;;;;;24.09;30.73;97308.72;5013134;28;20526;-73
2022/05/12 01:33:32;;;;;;;3.00;2.70;;;;;;;24.02;31.21;97300.00;4995923;28;20208;-73
2022/05/12 01:35:57;;;;;;;3.50;2.87;;;;;;;24.00;31.51;97305.63;5013603;28;20457;-71
2022/05/12 01:38:24;;;;;;;3.10;2.70;;;;;;;24.04;31.69;97309.44;5012803;28;20526;-70
2022/05/12 01:40:50;;;;;;;8.77;4.73;;;;;;;24.01;31.89;97315.28;5013214;28;20216;-70
2022/05/12 01:43:16;;;;;;;4.80;3.03;;;;;;;23.91;32.03;97325.75;4995152;28;20459;-70
2022/05/12 01:45:42;;;;;;;3.60;3.30;;;;;;;23.87;32.15;97324.56;4979578;28;20441;-72
2022/05/12 01:48:09;;;;;;;5.60;3.90;;;;;;;23.83;32.36;97323.41;5013008;28;20797;-71
2022/05/12 01:50:39;;;;;;;4.73;4.23;;;;;;;23.83;32.39;97323.41;4996068;28;20180;-70
2022/05/12 01:53:05;;;;;;;5.40;4.07;;;;;;;23.80;32.79;97331.91;5011685;28;20954;-70
2022/05/12 01:55:31;;;;;;;5.30;3.47;;;;;;;23.83;32.94;97329.59;5012837;28;20490;-70
2022/05/12 01:57:57;;;;;;;11.03;4.43;;;;;;;23.84;32.94;97335.72;5012487;28;20180;-70
2022/05/12 02:00:26;;;;;;;5.47;3.47;;;;;;;23.79;33.57;97344.47;5012387;28;20494;-70
2022/05/12 02:02:52;;;;;;;13.57;6.93;;;;;;;23.64;34.04;97334.25;5012883;28;20451;-70
2022/05/12 02:05:18;;;;;;;7.60;3.53;;;;;;;23.55;34.45;97341.81;5012657;28;20497;-70
2022/05/12 02:07:46;;;;;;;3.77;3.47;;;;;;;23.50;34.63;97347.06;5012777;28;20184;-70
2022/05/12 02:10:17;;;;;;;10.00;4.50;;;;;;;23.50;34.50;97357.75;5012460;28;20553;-70
2022/05/12 02:12:43;;;;;;;5.53;4.40;;;;;;;23.37;35.79;97366.81;5007939;28;20464;-71
2022/05/12 02:15:08;;;;;;;3.60;3.30;;;;;;;23.17;35.71;97365.25;5010031;28;20439;-71
2022/05/12 02:17:34;;;;;;;12.77;5.20;;;;;;;23.04;36.20;97359.28;5012678;28;20322;-70
2022/05/12 02:20:00;;;;;;;3.43;3.13;;;;;;;23.09;35.79;97362.88;4994998;28;20215;-71
2022/05/12 02:22:26;;;;;;;6.40;4.20;;;;;;;23.02;36.13;97364.84;4995227;28;20223;-70
2022/05/12 02:24:51;;;;;;;6.70;4.30;;;;;;;23.04;36.08;97364.63;5012328;28;20439;-71
2022/05/12 02:27:17;;;;;;;6.63;3.40;;;;;;;23.12;35.82;97375.00;5011997;28;20188;-70
2022/05/12 02:29:42;;;;;;;5.57;3.97;;;;;;;23.04;35.65;97373.47;5012494;28;20184;-71
2022/05/12 02:32:08;;;;;;;4.13;3.13;;;;;;;23.10;35.13;97377.06;5012231;28;20251;-71
2022/05/12 02:34:34;;;;;;;3.90;3.50;;;;;;;23.11;35.59;97381.38;5012426;28;20619;-70
2022/05/12 02:37:01;;;;;;;4.27;3.60;;;;;;;23.07;35.70;97385.53;5012329;28;20220;-71
2022/05/12 02:39:35;;;;;;;4.33;3.43;;;;;;;23.09;35.87;97392.28;5012509;28;20471;-72
2022/05/12 02:42:02;;;;;;;5.70;3.53;;;;;;;22.94;36.67;97399.91;5009193;28;20423;-73
2022/05/12 02:44:28;;;;;;;4.70;3.50;;;;;;;22.86;37.15;97401.06;5012437;28;20455;-71
2022/05/12 02:46:54;;;;;;;9.50;3.87;;;;;;;22.85;36.64;97396.75;5012158;28;20978;-71
2022/05/12 02:49:19;;;;;;;9.63;3.67;;;;;;;22.81;37.34;97404.38;5011909;28;20191;-71
2022/05/12 02:51:45;;;;;;;5.03;3.10;;;;;;;22.76;37.29;97406.94;4994622;28;20192;-70
2022/05/12 02:54:11;;;;;;;6.80;3.60;;;;;;;22.80;36.90;97409.97;5011761;28;20243;-71
2022/05/12 02:56:38;;;;;;;5.40;3.60;;;;;;;22.79;36.49;97409.16;5011251;28;20184;-71
2022/05/12 02:59:05;;;;;;;3.50;2.90;;;;;;;22.72;36.38;97408.41;4994162;28;20459;-71
2022/05/12 03:01:31;;;;;;;5.53;3.43;;;;;;;22.70;36.30;97413.16;5012193;28;20439;-71
2022/05/12 03:03:56;;;;;;;4.90;3.63;;;;;;;22.66;37.58;97412.00;5012129;28;20455;-71
2022/05/12 03:06:22;;;;;;;7.77;3.37;;;;;;;22.66;38.56;97410.13;5012488;28;20180;-73
2022/05/12 03:08:47;;;;;;;10.17;3.80;;;;;;;22.68;37.96;97425.97;5011936;28;20279;-69
2022/05/12 03:11:13;;;;;;;12.63;4.10;;;;;;;22.68;37.89;97428.63;4996865;28;20196;-72
2022/05/12 03:13:39;;;;;;;4.63;4.13;;;;;;;22.57;38.78;97429.34;5013123;28;20214;-70
2022/05/12 03:16:04;;;;;;;8.00;3.93;;;;;;;22.48;38.97;97432.34;5011586;28;20446;-73
2022/05/12 03:18:30;;;;;;;9.90;3.60;;;;;;;22.44;39.00;97441.03;5011529;28;20782;-70
2022/05/12 03:20:55;;;;;;;4.37;3.40;;;;;;;22.48;38.85;97432.34;4993999;28;20239;-71
2022/05/12 03:23:23;;;;;;;9.90;3.40;;;;;;;22.55;38.46;97433.09;5011263;28;20208;-72
2022/05/12 03:25:51;;;;;;;7.60;3.93;;;;;;;22.37;39.32;97441.06;5010909;28;20215;-71
2022/05/12 03:28:16;;;;;;;4.70;2.90;;;;;;;22.38;39.28;97440.84;5011257;28;20522;-71
2022/05/12 03:30:43;;;;;;;5.83;2.97;;;;;;;22.52;39.11;97433.53;5011390;28;20518;-71
2022/05/12 03:33:12;;;;;;;6.03;3.13;;;;;;;22.51;39.22;97437.25;5014237;28;20227;-71
2022/05/12 03:35:37;;;;;;;3.60;3.10;;;;;;;22.54;39.12;97447.47;5011327;28;20478;-72
2022/05/12 03:38:04;;;;;;;8.20;3.60;;;;;;;22.55;39.40;97449.13;5009063;28;20454;-73
2022/05/12 03:40:32;;;;;;;7.77;3.70;;;;;;;22.47;39.82;97446.72;5000263;28;20244;-71
2022/05/12 03:42:58;;;;;;;7.30;3.77;;;;;;;22.49;39.86;97455.34;5003711;28;20474;-72
2022/05/12 03:45:27;;;;;;;5.80;4.40;;;;;;;22.44;40.01;97441.81;5010240;28;20510;-70
2022/05/12 03:47:55;;;;;;;6.77;4.87;;;;;;;22.45;40.10;97448.78;5011088;28;20188;-72
2022/05/12 03:50:23;;;;;;;11.00;3.07;;;;;;;22.45;40.29;97448.78;5010555;28;20431;-72
2022/05/12 03:52:50;;;;;;;7.43;3.10;;;;;;;22.45;40.38;97464.81;4993638;28;20463;-72
2022/05/12 03:55:18;;;;;;;3.70;3.37;;;;;;;22.45;40.32;97448.00;5010588;28;20533;-71
2022/05/12 03:57:45;;;;;;;6.40;3.97;;;;;;;22.39;41.18;97455.81;5011138;28;20431;-72
2022/05/12 04:00:14;;;;;;;10.20;4.60;;;;;;;22.31;41.17;97468.63;5011085;28;20494;-73
2022/05/12 04:02:39;;;;;;;4.53;3.10;;;;;;;22.39;40.84;97466.50;5010261;28;20581;-71
2022/05/12 04:05:07;;;;;;;4.50;3.70;;;;;;;22.45;41.05;97475.50;5011579;28;20428;-70
2022/05/12 04:07:33;;;;;;;5.47;4.73;;;;;;;22.35;41.58;97485.84;4993714;28;20215;-70
2022/05/12 04:10:01;;;;;;;4.83;3.73;;;;;;;22.31;41.46;97485.47;5011654;28;20423;-71
2022/05/12 04:12:27;;;;;;;8.47;4.00;;;;;;;22.23;42.05;97483.13;5011212;28;20697;-70
2022/05/12 04:14:52;;;;;;;5.97;3.50;;;;;;;22.19;41.79;97492.59;5011278;28;20443;-70
2022/05/12 04:17:18;;;;;;;8.80;3.60;;;;;;;22.20;41.80;97494.22;4992003;28;20601;-71
2022/05/12 04:19:50;;;;;;;8.50;3.47;;;;;;;22.18;41.83;97493.63;5010818;28;20216;-70
2022/05/12 04:22:16;;;;;;;7.40;3.80;;;;;;;22.11;42.20;97501.69;5010812;28;20550;-70
2022/05/12 04:24:41;;;;;;;4.67;3.20;;;;;;;22.00;42.59;97505.88;4993427;28;20503;-70
2022/05/12 04:27:07;;;;;;;7.90;3.40;;;;;;;21.98;42.46;97502.63;5009305;28;20196;-71
2022/05/12 04:29:36;;;;;;;5.17;3.47;;;;;;;22.05;42.42;97518.59;5010675;28;20242;-71
2022/05/12 04:32:02;;;;;;;5.07;3.70;;;;;;;22.04;42.78;97522.28;5010273;28;20250;-71
2022/05/12 04:37:11;;;;;;;7.67;4.00;;;;;;;22.01;42.90;97522.72;5010392;28;20267;-71
2022/05/12 04:39:37;;;;;;;4.10;3.70;;;;;;;22.04;43.23;97523.09;5010874;28;20526;-71
2022/05/12 04:42:03;;;;;;;7.50;3.47;;;;;;;21.96;43.30;97526.03;5010091;28;20185;-70
2022/05/12 04:44:29;;;;;;;6.40;3.17;;;;;;;21.92;43.68;97531.00;5009888;28;20266;-71
2022/05/12 04:46:54;;;;;;;5.17;3.23;;;;;;;21.91;43.67;97540.03;5010168;28;20922;-71
2022/05/12 04:49:20;;;;;;;5.23;3.30;;;;;;;21.88;43.94;97544.97;5010629;28;20203;-71
2022/05/12 04:51:45;;;;;;;5.93;3.53;;;;;;;21.93;43.76;97548.63;5010098;28;20192;-70
2022/05/12 04:54:11;;;;;;;6.07;3.70;;;;;;;21.83;44.49;97548.28;5010401;28;20699;-70
2022/05/12 04:56:37;;;;;;;3.97;3.33;;;;;;;21.86;44.91;97550.53;5009908;28;20192;-71
2022/05/12 04:59:03;;;;;;;6.73;3.43;;;;;;;21.86;44.75;97557.72;5013803;28;20220;-72
2022/05/12 05:01:29;;;;;;;7.70;3.40;;;;;;;21.92;44.78;97557.69;5015230;28;20424;-72
2022/05/12 05:03:56;;;;;;;9.50;3.50;;;;;;;21.86;45.32;97558.53;5013991;28;20954;-71
2022/05/12 05:06:22;;;;;;;4.93;3.60;;;;;;;21.97;45.32;97570.38;5012630;28;20203;-69
2022/05/12 05:08:47;;;;;;;10.93;3.70;;;;;;;22.06;45.51;97570.91;5013342;28;20423;-69
2022/05/12 05:11:13;;;;;;;9.97;3.53;;;;;;;22.11;45.62;97576.41;5011262;28;20269;-69
2022/05/12 05:13:39;;;;;;;6.70;4.20;;;;;;;22.10;46.23;97585.44;5013044;28;20223;-69
2022/05/12 05:16:04;;;;;;;5.73;4.33;;;;;;;22.09;46.40;97589.97;5011788;28;20435;-70
2022/05/12 05:18:30;;;;;;;6.43;3.50;;;;;;;22.16;46.16;97589.94;4995971;28;20189;-69
2022/05/12 05:20:56;;;;;;;7.50;3.90;;;;;;;22.24;46.20;97586.97;5013892;28;20699;-69
2022/05/12 05:23:21;;;;;;;5.33;3.67;;;;;;;22.37;45.98;97577.22;5013047;28;20211;-68
2022/05/12 05:25:48;;;;;;;3.97;3.17;;;;;;;22.53;45.51;97589.22;4996991;28;20192;-69
2022/05/12 05:28:14;;;;;;;7.03;2.77;;;;;;;22.69;44.64;97590.50;5013245;28;20184;-68
2022/05/12 05:30:41;;;;;;;2.53;2.33;;;;;;;22.83;43.78;97602.69;5013983;28;20434;-68
2022/05/12 05:33:08;;;;;;;6.70;2.60;;;;;;;22.94;43.82;97602.97;5012494;28;20561;-71
2022/05/12 05:35:34;;;;;;;2.27;2.13;;;;;;;23.03;43.21;97615.03;5013428;28;20435;-68
2022/05/12 05:38:01;;;;;;;7.50;2.17;;;;;;;23.10;42.82;97615.75;5012537;28;20466;-69
2022/05/12 05:40:27;;;;;;;6.83;2.47;;;;;;;23.18;42.70;97620.00;4990777;28;20475;-67
2022/05/12 05:42:53;;;;;;;4.77;2.23;;;;;;;23.22;42.64;97613.19;5013079;28;20516;-70
2022/05/12 05:45:19;;;;;;;5.53;2.23;;;;;;;23.34;42.46;97628.47;5012192;28;20200;-69
2022/05/12 05:47:48;;;;;;;4.37;2.00;;;;;;;23.46;42.00;97632.84;5012601;28;20493;-68
2022/05/12 05:50:19;;;;;;;6.43;2.73;;;;;;;23.60;41.37;97635.34;4998533;28;20506;-72
2022/05/12 05:55:29;;;;;;;4.67;2.17;;;;;;;23.83;40.71;97644.50;5008648;28;20489;-68
2022/05/12 05:57:57;;;;;;;5.77;3.10;;;;;;;23.88;41.26;97652.66;5013575;28;20850;-68
2022/05/12 06:00:23;;;;;;;3.53;1.83;;;;;;;23.95;41.07;97649.91;5003461;28;20872;-68
2022/05/12 06:02:50;;;;;;;4.90;2.90;;;;;;;24.02;40.85;97648.78;4995236;28;20526;-69
2022/05/12 06:05:17;;;;;;;4.80;2.40;;;;;;;24.06;40.60;97649.16;5007268;28;20555;-68
2022/05/12 06:07:43;;;;;;;4.80;2.17;;;;;;;24.11;40.95;97649.28;5011134;28;20436;-69
2022/05/12 06:10:09;;;;;;;3.67;2.17;;;;;;;24.23;40.88;97651.97;5011308;28;20478;-70
2022/05/12 06:12:34;;;;;;;2.40;2.10;;;;;;;24.35;40.14;97655.50;5009621;28;20474;-69
2022/05/12 06:15:00;;;;;;;4.90;2.70;;;;;;;24.46;40.84;97663.78;5013315;28;20235;-72
2022/05/12 06:17:26;;;;;;;3.07;2.00;;;;;;;24.61;40.47;97655.31;5012997;28;20188;-70
2022/05/12 06:19:52;;;;;;;3.60;2.20;;;;;;;24.67;39.68;97657.88;4995623;28;20204;-70
2022/05/12 06:22:19;;;;;;;6.53;1.97;;;;;;;24.79;39.41;97649.03;4994299;28;20200;-69
2022/05/12 06:24:47;;;;;;;4.67;1.80;;;;;;;24.89;38.99;97653.81;5013323;28;20435;-69
2022/05/12 06:27:14;;;;;;;3.90;2.03;;;;;;;24.99;39.10;97651.34;5010690;28;20470;-69
2022/05/12 06:29:41;;;;;;;4.30;2.00;;;;;;;25.14;38.92;97666.94;5012904;28;20489;-70
2022/05/12 06:32:07;;;;;;;3.47;1.90;;;;;;;25.27;38.70;97665.88;5012099;28;20810;-69
2022/05/12 06:34:34;;;;;;;1.80;1.70;;;;;;;25.35;38.55;97670.88;5012238;28;20482;-70
2022/05/12 06:36:59;;;;;;;5.10;1.50;;;;;;;25.42;38.78;97671.59;5013660;28;20427;-69
2022/05/12 06:39:25;;;;;;;10.00;2.17;;;;;;;25.36;38.16;97671.69;4987027;28;20498;-70
2022/05/12 06:41:52;;;;;;;7.57;1.93;;;;;;;25.30;38.47;97681.50;5012442;28;20196;-69
2022/05/12 06:44:19;;;;;;;4.17;1.90;;;;;;;25.22;38.58;97677.31;5012623;28;20454;-70
2022/05/12 06:46:45;;;;;;;2.73;1.70;;;;;;;25.12;38.88;97682.47;5012198;28;20427;-70
2022/05/12 06:49:10;;;;;;;4.17;1.90;;;;;;;24.97;39.52;97689.09;5012326;28;20549;-69
2022/05/12 06:51:36;;;;;;;2.73;2.00;;;;;;;24.96;39.70;97678.63;5015144;28;20192;-70
2022/05/12 06:54:02;;;;;;;2.13;1.93;;;;;;;24.91;39.77;97689.22;4978358;28;20339;-69
2022/05/12 06:56:28;;;;;;;3.93;2.47;;;;;;;24.88;39.92;97689.72;5011797;28;20434;-70
2022/05/12 06:58:54;;;;;;;5.53;1.80;;;;;;;24.75;40.28;97693.41;5012256;28;20219;-71
2022/05/12 07:01:20;;;;;;;3.97;2.17;;;;;;;24.73;39.94;97688.31;5011964;28;20651;-69
2022/05/12 07:03:45;;;;;;;4.20;1.70;;;;;;;24.72;40.16;97692.03;5012011;28;20200;-69
2022/05/12 07:06:11;;;;;;;3.47;2.17;;;;;;;24.71;39.86;97695.75;5011939;28;21026;-69
2022/05/12 07:08:40;;;;;;;3.27;1.80;;;;;;;24.63;40.47;97702.25;5011764;28;20184;-69
2022/05/12 07:11:06;;;;;;;1.97;1.77;;;;;;;24.57;40.48;97697.81;5011915;28;20455;-69
2022/05/12 07:13:32;;;;;;;4.47;1.90;;;;;;;24.57;40.19;97700.50;5011916;28;20882;-68
2022/05/12 07:15:57;;;;;;;23.97;3.87;;;;;;;24.52;40.63;97705.72;5012163;28;20534;-68
2022/05/12 07:18:23;;;;;;;4.50;2.07;;;;;;;24.51;40.79;97704.09;5011303;28;20185;-71
2022/05/12 07:29:00;;;;;;;5.10;2.40;;;;;;;24.71;40.32;97719.03;5012039;28;20467;-70
2022/05/12 07:31:25;;;;;;;2.60;2.30;;;;;;;24.80;40.12;97723.03;5011932;28;20474;-70
2022/05/12 07:33:51;;;;;;;2.63;2.03;;;;;;;24.83;40.29;97725.22;5011596;28;20231;-67
2022/05/12 07:36:20;;;;;;;4.87;1.93;;;;;;;24.85;40.26;97733.84;4994041;28;20259;-69
2022/05/12 07:38:47;;;;;;;2.37;1.53;;;;;;;24.88;40.42;97737.97;5011867;28;20438;-70
2022/05/12 07:41:13;;;;;;;4.00;2.37;;;;;;;24.95;40.27;97739.44;5011577;28;20473;-71
2022/05/12 07:43:39;;;;;;;3.57;2.20;;;;;;;25.17;40.14;97728.16;5011575;28;20465;-70
2022/05/12 07:46:06;;;;;;;5.63;2.40;;;;;;;25.27;39.28;97730.22;5011182;28;20435;-70
2022/05/12 07:48:33;;;;;;;2.77;2.57;;;;;;;25.49;39.08;97729.66;5011304;28;20427;-69
2022/05/12 07:50:59;;;;;;;4.37;2.37;;;;;;;25.76;38.80;97729.94;5011915;28;21057;-69
2022/05/12 07:53:24;;;;;;;6.70;1.77;;;;;;;25.91;38.39;97740.16;5011019;28;20550;-69
2022/05/12 07:55:50;;;;;;;4.40;1.73;;;;;;;25.96;38.30;97740.28;5016434;28;20552;-69
2022/05/12 07:58:17;;;;;;;3.53;1.80;;;;;;;26.01;37.76;97744.94;5010974;28;20670;-70
2022/05/12 08:00:43;;;;;;;4.23;1.87;;;;;;;25.97;38.37;97741.06;5009913;28;20243;-69
2022/05/12 08:03:09;;;;;;;2.70;1.70;;;;;;;25.92;38.54;97741.78;5011018;28;20478;-69
2022/05/12 08:05:35;;;;;;;4.80;1.70;;;;;;;26.01;38.42;97743.06;5012043;28;20431;-69
2022/05/12 08:08:01;;;;;;;2.93;1.80;;;;;;;26.03;37.85;97740.13;5011027;28;20314;-69
2022/05/12 08:10:26;;;;;;;6.17;1.60;;;;;;;26.14;38.20;97741.97;5011087;28;20465;-69
2022/05/12 08:12:53;;;;;;;4.50;3.00;;;;;;;26.27;38.04;97738.19;5010901;28;20687;-69
2022/05/12 08:15:18;;;;;;;3.80;1.77;;;;;;;26.44;37.32;97743.59;5009606;28;20192;-70
2022/05/12 08:17:44;;;;;;;4.00;2.10;;;;;;;26.67;37.30;97744.50;5011017;28;20940;-69
2022/05/12 08:20:11;;;;;;;4.50;1.60;;;;;;;26.72;36.49;97741.09;5010963;28;20219;-68
2022/05/12 08:22:38;;;;;;;4.30;1.93;;;;;;;27.00;36.44;97737.50;5010570;28;20671;-69
2022/05/12 08:25:04;;;;;;;3.63;2.20;;;;;;;27.22;36.07;97740.25;5010881;28;20440;-70
2022/05/12 08:27:31;;;;;;;11.13;2.23;;;;;;;27.39;35.56;97740.22;5010874;28;20427;-69
2022/05/12 08:29:56;;;;;;;3.00;1.73;;;;;;;27.61;35.54;97733.25;5011053;28;20419;-68
2022/05/12 08:32:22;;;;;;;3.80;1.40;;;;;;;27.64;35.39;97724.69;4994721;28;20442;-69
2022/05/12 08:34:47;;;;;;;2.77;2.00;;;;;;;27.72;35.14;97738.50;5014903;28;20187;-70
2022/05/12 08:37:15;;;;;;;5.20;1.90;;;;;;;27.73;35.21;97733.94;5014372;28;20683;-69
2022/05/12 08:39:43;;;;;;;8.13;2.03;;;;;;;27.74;35.41;97741.75;5018073;28;20695;-69
2022/05/12 08:42:20;;;;;;;13.53;1.83;;;;;;;27.51;35.35;97747.38;5015142;28;20441;-69
2022/05/12 08:44:46;;;;;;;6.60;2.20;;;;;;;27.42;35.45;97753.19;4997462;28;21019;-69
2022/05/12 08:47:15;;;;;;;4.60;1.97;;;;;;;27.34;35.92;97748.25;4996882;28;20522;-69
2022/05/12 08:49:47;;;;;;;3.77;2.30;;;;;;;27.14;35.73;97754.94;4997324;28;20715;-69
2022/05/12 08:52:25;;;;;;;6.53;1.90;;;;;;;27.03;36.46;97765.81;5013848;28;20482;-71
2022/05/12 08:54:54;;;;;;;4.90;1.80;;;;;;;27.17;36.25;97761.69;5014332;28;20466;-71
2022/05/12 08:57:43;;;;;;;4.23;2.30;;;;;;;27.32;36.37;97763.81;5013941;28;20434;-69
2022/05/12 09:00:12;;;;;;;7.03;1.90;;;;;;;27.51;35.85;97763.53;5014203;28;20462;-69
2022/05/12 09:02:47;;;;;;;7.30;1.87;;;;;;;27.62;35.13;97768.00;5014425;28;20949;-69
2022/05/12 09:05:18;;;;;;;3.23;1.77;;;;;;;27.66;35.00;97766.44;5014762;28;20425;-69
2022/05/12 09:07:46;;;;;;;4.83;2.10;;;;;;;27.96;34.85;97754.41;5014029;28;20514;-72
2022/05/12 09:10:27;;;;;;;2.33;2.13;;;;;;;28.26;34.69;97746.94;5013800;28;20489;-70
2022/05/12 09:13:05;;;;;;;6.43;2.20;;;;;;;28.48;34.10;97750.38;5013497;28;20833;-69
2022/05/12 09:15:35;;;;;;;4.40;2.00;;;;;;;28.76;34.07;97750.38;5012631;28;20509;-69
2022/05/12 09:18:04;;;;;;;3.50;2.30;;;;;;;28.96;33.30;97745.16;5016645;28;20537;-70
2022/05/12 09:20:32;;;;;;;3.83;2.40;;;;;;;29.00;33.39;97755.41;4996678;28;20473;-69
2022/05/12 09:22:59;;;;;;;2.90;2.33;;;;;;;29.05;33.16;97747.34;5013727;28;20458;-69
2022/05/12 09:25:36;;;;;;;9.70;2.00;;;;;;;29.04;33.19;97734.94;4995504;28;20446;-70
2022/05/12 09:28:26;;;;;;;4.70;2.00;;;;;;;29.14;33.29;97742.28;5013282;28;20427;-69
2022/05/12 09:30:52;;;;;;;3.13;1.80;;;;;;;29.15;33.69;97747.41;5013813;28;20427;-69
2022/05/12 09:33:29;;;;;;;3.27;1.90;;;;;;;29.04;33.51;97751.94;5013226;28;20470;-69
2022/05/12 09:36:00;;;;;;;5.97;2.53;;;;;;;28.78;32.91;97748.22;5013798;28;20196;-69
2022/05/12 09:38:26;;;;;;;4.87;2.80;;;;;;;28.60;32.86;97758.31;5005542;28;20427;-69
2022/05/12 09:40:53;;;;;;;5.53;2.80;;;;;;;28.32;33.32;97752.13;5013756;28;20469;-70
2022/05/12 09:43:31;;;;;;;2.93;2.70;;;;;;;28.09;34.06;97755.13;5012587;28;20823;-68
2022/05/12 09:46:31;;;;;;;8.97;2.60;;;;;;;28.19;33.96;97749.84;5013732;28;20945;-70
2022/05/12 09:49:21;;;;;;;6.43;3.17;;;;;;;28.30;33.92;97761.50;5012005;28;20506;-70
2022/05/12 09:51:47;;;;;;;3.13;2.67;;;;;;;28.28;33.74;97756.38;5008423;28;20437;-69
2022/05/12 09:54:28;;;;;;;4.23;3.10;;;;;;;28.39;33.77;97743.84;4995225;28;20451;-71
2022/05/12 09:57:04;;;;;;;3.97;2.93;;;;;;;28.57;33.99;97744.53;5012874;28;20204;-70
2022/05/12 09:59:31;;;;;;;8.10;3.20;;;;;;;28.66;32.46;97741.09;4995547;28;20538;-70
2022/05/12 10:02:02;;;;;;;3.10;2.90;;;;;;;28.67;32.94;97737.34;4995386;28;20846;-70
2022/05/12 10:10:17;;;;;;;4.37;2.50;;;;;;;28.47;33.30;97726.41;5011379;28;20578;-70
2022/05/12 10:13:03;;;;;;;11.43;3.07;;;;;;;28.36;33.29;97726.28;5015673;28;20490;-69
2022/05/12 10:15:35;;;;;;;3.60;3.20;;;;;;;28.13;33.04;97729.28;5004553;28;20435;-70
2022/05/12 10:18:31;;;;;;;5.90;3.00;;;;;;;27.96;33.42;97727.50;5012172;28;20518;-71
2022/05/12 10:21:06;;;;;;;4.57;2.70;;;;;;;27.99;34.74;97716.19;5011462;28;20477;-70
2022/05/12 10:23:59;;;;;;;4.43;2.87;;;;;;;28.30;34.57;97716.53;5012048;28;20869;-71
2022/05/12 10:26:34;;;;;;;2.60;2.40;;;;;;;28.45;34.04;97707.75;4993198;28;20427;-69
2022/05/12 10:29:34;;;;;;;4.20;2.90;;;;;;;28.45;33.54;97706.97;5012161;28;20979;-70
2022/05/12 10:32:15;;;;;;;6.37;2.83;;;;;;;28.32;33.47;97709.00;5008373;28;20439;-74
2022/05/12 10:34:51;;;;;;;3.50;3.20;;;;;;;28.28;33.01;97705.19;5012287;28;20435;-67
2022/05/12 10:37:31;;;;;;;5.77;3.00;;;;;;;28.74;33.28;97699.41;4994171;28;20434;-70
2022/05/12 10:40:32;;;;;;;5.33;3.63;;;;;;;29.16;32.43;97695.06;4993703;28;20477;-69
2022/05/12 10:43:31;;;;;;;4.10;3.20;;;;;;;29.34;31.84;97693.03;4994196;28;20471;-70
2022/05/12 10:46:11;;;;;;;6.50;3.27;;;;;;;29.62;31.60;97688.28;5008252;28;20926;-68
2022/05/12 10:48:49;;;;;;;8.80;2.90;;;;;;;29.99;31.61;97684.66;5005940;28;20423;-71
2022/05/12 10:51:23;;;;;;;3.53;3.23;;;;;;;30.21;30.61;97691.69;5010192;28;20502;-71
2022/05/12 10:54:16;;;;;;;6.20;3.13;;;;;;;30.03;30.32;97681.16;4992352;28;20493;-69
2022/05/12 10:57:23;;;;;;;5.53;3.20;;;;;;;29.87;30.19;97680.25;5011808;28;20434;-70
2022/05/12 11:00:08;;;;;;;6.23;3.03;;;;;;;29.88;30.78;97675.69;4988496;28;20562;-69
2022/05/12 11:02:43;;;;;;;6.57;3.30;;;;;;;30.04;31.12;97684.66;5011895;28;20427;-69
2022/05/12 11:05:16;;;;;;;3.67;3.37;;;;;;;30.00;31.01;97680.84;4994087;28;20427;-69
2022/05/12 11:07:48;;;;;;;7.70;3.70;;;;;;;29.84;30.62;97671.88;4994231;28;20542;-69
2022/05/12 11:10:30;;;;;;;10.20;3.83;;;;;;;29.73;31.03;97671.84;5018140;28;20800;-70
2022/05/12 11:13:02;;;;;;;3.60;3.30;;;;;;;29.62;31.67;97669.38;5011492;28;20462;-70
2022/05/12 11:15:33;;;;;;;3.40;3.10;;;;;;;29.51;31.69;97668.56;5011576;28;20424;-70
2022/05/12 11:18:04;;;;;;;6.47;5.20;;;;;;;29.43;31.55;97667.16;4993482;28;20934;-70
2022/05/12 11:20:32;;;;;;;8.00;7.13;;;;;;;29.54;31.42;97663.44;5011474;28;20462;-70
2022/05/12 11:23:04;;;;;;;8.43;4.67;;;;;;;29.48;32.28;97664.50;5011019;28;20614;-70
2022/05/12 11:25:38;;;;;;;3.47;2.80;;;;;;;29.24;32.55;97669.47;5004057;28;20789;-68
2022/05/12 11:31:03;;;;;;;10.50;3.70;;;;;;;29.23;32.10;97657.06;5011359;28;20838;-70
2022/05/12 11:33:39;;;;;;;11.13;5.80;;;;;;;29.16;32.07;97670.78;5011299;28;20853;-70
2022/05/12 11:36:08;;;;;;;5.10;3.17;;;;;;;29.17;31.61;97656.22;4993339;28;20513;-70
2022/05/12 11:38:37;;;;;;;6.13;3.10;;;;;;;29.29;32.15;97656.03;4993609;28;20435;-69
2022/05/12 11:41:04;;;;;;;9.13;3.00;;;;;;;29.41;32.41;97653.94;4992985;28;21182;-70
2022/05/12 11:46:42;;;;;;;3.43;3.13;;;;;;;29.61;31.60;97646.97;4995870;28;20466;-69
2022/05/12 11:49:37;;;;;;;3.50;3.20;;;;;;;29.96;31.08;97642.75;5008611;28;20792;-69
2022/05/12 11:52:15;;;;;;;6.60;4.10;;;;;;;30.19;31.10;97646.84;5007659;28;20455;-69
2022/05/12 11:54:50;;;;;;;7.47;3.20;;;;;;;30.47;30.71;97641.16;5011293;28;20593;-70
2022/05/12 11:57:32;;;;;;;4.60;3.03;;;;;;;30.47;30.54;97633.88;4993362;28;20419;-69
2022/05/12 12:00:00;;;;;;;9.00;4.80;;;;;;;30.50;29.80;97641.41;5011308;28;20465;-71
2022/05/12 12:02:29;;;;;;;4.60;3.40;;;;;;;30.36;29.73;97640.38;5011451;28;20522;-69
2022/05/12 12:04:56;;;;;;;10.33;6.10;;;;;;;30.21;30.30;97641.16;5010920;28;20437;-69
2022/05/12 12:07:31;;;;;;;4.67;4.20;;;;;;;30.14;30.51;97644.13;4996813;28;20905;-70
2022/05/12 12:10:21;;;;;;;6.87;4.10;;;;;;;30.04;30.48;97638.72;5017304;28;20446;-70